עמוד ראשי
METAR-TAF:

METAR-TAF

שדות תעופה :

מאלגה, ספרד

קו רוחב: 36-40N, קו אורך: 004-29W, גובה: 16מטר

תצפית מזג אוויר נוכחית

הדו"ח נערך לפני 39דקות, בשעה 11:00 UTC
רוח 8קשר מכיוון צפון-מערב, משתנה בין מערב ו צפון
טמפרטורת 38 צלסיוס
לחות 24%
לחץ 1012 hPa
ראות 10 קילומטר או יותר
ללא עננים שבסיסם נמוך מ 5000 רגל או קומולונימבוס

METAR: LEMG 121100Z 31008KT 270V360 CAVOK 38/14 Q1012 NOSIG

זמן: 13:39 (11:39 UTC)

תחזית

הדו"ח נערך לפני 6 שעות ו 39דקות, בשעה 05:00 UTC
תחזית בתוקף מ 12 ב 06 UTC עד 13 ב 06 UTC
רוח 10קשר מכיוון מערב/צפון-מערב
ראות 10 קילומטר או יותר
ללא עננים שבסיסם נמוך מ 5000 רגל או קומולונימבוס
הסתברות 30% :
זמנית מ -
12 ב 15 UTC עד 12 ב 19 UTC
רוח 5קשר מכיוון צפון/צפון-מזרח
יעשה מ
13 ב 01 UTC עד 13 ב 03 UTC
רוח 9קשר מכיוון מזרח

TAF: LEMG 120500Z 1206/1306 30010KT CAVOK TX32/1214Z TN22/1206Z PROB30 TEMPO 1215/1219 03005KT BECMG 1301/1303 09009KT

תצפיות ותחזיות מזג אוויר לגבי יותר מ- 4,000 שדות תעופה ברחבי העולם. דוחות METAR ו- TAF.

התחנות הזמינות מסומנות בנקודות צהובות ואדומות על גבי המפה.

העבר את העכבר לנקודה הצבעונית על מנת לראות את שם התחנה.

לאחר מכן, לחץ כדי לראות את תוכן ואת תחזיות מזג האוויר.

כדי לשנות את המפה: לחץ על הכפתורים הירוקים עם הפלוס השחור כדי להתקרב; על הכפתור הירוק עם המקף כדי להתרחק; או בחיצים הירוקים למפות סמוכות.


METAR-TAF: